Time;durP1;ratioP1;P1;durP2;ratioP2;P2;SDS_P1;SDS_P2;PMS_P1;PMS_P2;Temp;Humidity;BMP_temperature;BMP_pressure;BME280_temperature;BME280_humidity;BME280_pressure;Samples;Min_cycle;Max_cycle;Signal;HPM_P1;HPM_P2
2021/01/11 00:01:42;;;;;;;27.10;13.32;;;-2.90;94.20;;;;;;5048784;28;21256;-70
2021/01/11 00:04:08;;;;;;;34.42;14.63;;;-3.00;94.10;;;;;;5048062;28;20699;-71
2021/01/11 00:06:38;;;;;;;32.65;14.70;;;-2.90;94.10;;;;;;5051226;28;20263;-70
2021/01/11 00:09:05;;;;;;;30.95;14.13;;;-3.00;94.00;;;;;;5049044;28;20263;-70
2021/01/11 00:11:32;;;;;;;36.33;14.73;;;-3.00;94.00;;;;;;5053251;28;20679;-70
2021/01/11 00:13:59;;;;;;;36.08;14.25;;;-3.10;94.10;;;;;;5050984;28;20239;-69
2021/01/11 00:16:25;;;;;;;34.40;13.85;;;-3.00;94.10;;;;;;5048703;28;20739;-70
2021/01/11 00:18:51;;;;;;;33.55;13.63;;;-3.10;94.10;;;;;;5051495;28;20219;-70
2021/01/11 00:21:17;;;;;;;30.03;13.77;;;-3.10;94.10;;;;;;5051503;28;20184;-71
2021/01/11 00:23:43;;;;;;;39.80;15.60;;;-3.10;94.30;;;;;;5050870;28;20869;-71
2021/01/11 00:26:10;;;;;;;36.40;14.80;;;-3.10;94.30;;;;;;5062025;28;20194;-71
2021/01/11 00:28:38;;;;;;;36.92;15.40;;;-3.10;94.10;;;;;;5067250;28;20655;-70
2021/01/11 00:31:04;;;;;;;35.88;14.50;;;-3.20;94.00;;;;;;5050884;28;20215;-70
2021/01/11 00:33:30;;;;;;;29.57;14.60;;;-3.20;94.00;;;;;;5048197;28;20196;-70
2021/01/11 00:35:55;;;;;;;30.03;15.23;;;-3.20;94.10;;;;;;5047428;28;20195;-69
2021/01/11 00:38:21;;;;;;;33.17;14.20;;;-3.20;94.30;;;;;;5045644;28;20255;-70
2021/01/11 00:40:47;;;;;;;32.20;14.73;;;-3.30;94.20;;;;;;5051441;28;20662;-71
2021/01/11 00:43:13;;;;;;;31.30;15.47;;;-3.30;94.30;;;;;;5058654;28;20188;-69
2021/01/11 00:45:39;;;;;;;31.70;14.00;;;-3.30;94.40;;;;;;5061470;28;20231;-70
2021/01/11 00:48:05;;;;;;;34.63;14.20;;;-3.40;94.40;;;;;;5053425;28;20217;-71
2021/01/11 00:50:30;;;;;;;34.70;14.90;;;-3.40;94.40;;;;;;5051629;28;20195;-72
2021/01/11 00:52:56;;;;;;;37.73;15.10;;;-3.50;94.60;;;;;;5070325;28;20191;-71
2021/01/11 00:55:22;;;;;;;36.30;14.47;;;-3.40;94.80;;;;;;5056821;28;20573;-71
2021/01/11 00:57:47;;;;;;;31.33;14.10;;;-3.40;94.80;;;;;;5050617;28;20227;-70
2021/01/11 01:00:14;;;;;;;32.77;13.20;;;-3.40;94.80;;;;;;5052463;28;20722;-72
2021/01/11 01:02:39;;;;;;;34.88;14.50;;;-3.40;94.70;;;;;;5061864;28;20185;-73
2021/01/11 01:05:11;;;;;;;32.40;15.30;;;-3.40;94.60;;;;;;5050531;28;20227;-72
2021/01/11 01:07:40;;;;;;;34.03;15.38;;;-3.40;94.60;;;;;;5050608;28;20212;-73
2021/01/11 01:10:07;;;;;;;34.40;15.23;;;-3.40;94.60;;;;;;5051547;28;20266;-73
2021/01/11 01:12:33;;;;;;;32.67;13.73;;;-3.40;94.60;;;;;;5054159;28;20607;-70
2021/01/11 01:14:59;;;;;;;37.20;15.20;;;-3.40;94.40;;;;;;5065194;28;20219;-70
2021/01/11 01:17:25;;;;;;;32.60;15.18;;;-3.40;94.30;;;;;;5072573;28;20531;-71
2021/01/11 01:19:51;;;;;;;39.80;16.90;;;-3.50;94.20;;;;;;5064687;28;20726;-70
2021/01/11 01:22:16;;;;;;;32.27;14.07;;;-3.60;94.10;;;;;;5063849;28;20435;-69
2021/01/11 01:24:42;;;;;;;29.60;12.87;;;-3.60;94.30;;;;;;5050507;28;20729;-71
2021/01/11 01:27:08;;;;;;;34.90;13.93;;;-3.60;94.40;;;;;;5050831;28;20203;-72
2021/01/11 01:29:33;;;;;;;38.13;14.60;;;-3.60;94.40;;;;;;5050428;28;20177;-70
2021/01/11 01:31:59;;;;;;;32.50;14.30;;;-3.70;94.60;;;;;;5049622;28;20188;-70
2021/01/11 01:34:25;;;;;;;36.73;13.70;;;-3.70;94.80;;;;;;5050980;28;20258;-71
2021/01/11 01:36:51;;;;;;;32.07;14.10;;;-3.70;94.90;;;;;;5051031;28;20421;-73
2021/01/11 01:39:16;;;;;;;27.60;13.03;;;-3.70;94.90;;;;;;5052118;28;20507;-72
2021/01/11 01:41:43;;;;;;;33.83;13.53;;;-3.70;94.90;;;;;;5053381;28;20433;-71
2021/01/11 01:44:09;;;;;;;29.60;13.02;;;-3.70;94.90;;;;;;5064878;28;20205;-71
2021/01/11 01:46:35;;;;;;;31.93;13.30;;;-3.70;94.80;;;;;;5050256;28;20200;-72
2021/01/11 01:49:01;;;;;;;31.60;13.20;;;-3.80;94.90;;;;;;5050204;28;20191;-70
2021/01/11 01:51:27;;;;;;;34.33;15.48;;;-3.70;95.00;;;;;;5050075;28;20446;-71
2021/01/11 01:53:54;;;;;;;38.13;17.08;;;-3.80;95.10;;;;;;5049134;28;20228;-70
2021/01/11 01:56:20;;;;;;;29.88;13.60;;;-3.80;95.10;;;;;;5049217;28;20238;-70
2021/01/11 01:58:47;;;;;;;30.35;13.55;;;-3.80;95.20;;;;;;5049414;28;20211;-71
2021/01/11 02:01:13;;;;;;;33.15;13.95;;;-3.70;95.30;;;;;;5050158;28;20192;-72
2021/01/11 02:03:39;;;;;;;26.60;12.23;;;-3.70;95.20;;;;;;5050222;28;20195;-72
2021/01/11 02:06:05;;;;;;;28.80;12.23;;;-3.70;95.10;;;;;;5048350;28;20176;-71
2021/01/11 02:08:39;;;;;;;30.00;13.45;;;-3.70;95.00;;;;;;5063045;28;20298;-73
2021/01/11 02:11:17;;;;;;;35.17;14.50;;;-3.80;94.90;;;;;;5050165;28;20185;-72
2021/01/11 02:14:06;;;;;;;30.35;12.95;;;-3.80;94.80;;;;;;5049645;28;20215;-73
2021/01/11 02:16:32;;;;;;;38.95;13.80;;;-3.90;94.90;;;;;;5049240;28;20176;-72
2021/01/11 02:19:07;;;;;;;28.20;12.70;;;-3.90;95.00;;;;;;5055190;28;20653;-72
2021/01/11 02:21:41;;;;;;;33.72;14.23;;;-3.90;95.00;;;;;;5068119;28;20186;-72
2021/01/11 02:24:54;;;;;;;28.25;11.90;;;-3.90;95.00;;;;;;5049402;28;20208;-71
2021/01/11 02:27:26;;;;;;;33.72;12.88;;;-3.90;95.10;;;;;;5037070;28;20199;-70
2021/01/11 02:30:09;;;;;;;32.08;14.18;;;-4.00;95.20;;;;;;5048261;28;20196;-72
2021/01/11 02:32:40;;;;;;;29.85;13.38;;;-4.00;95.30;;;;;;5060225;28;20620;-71
2021/01/11 02:35:08;;;;;;;32.00;12.35;;;-4.00;95.40;;;;;;5061414;28;20232;-72
2021/01/11 02:37:37;;;;;;;27.50;13.50;;;-3.90;95.50;;;;;;5048957;28;20258;-73
2021/01/11 02:40:08;;;;;;;37.42;14.23;;;-3.90;95.50;;;;;;5044095;28;20182;-71
2021/01/11 02:42:34;;;;;;;34.40;16.55;;;-4.00;95.50;;;;;;5062667;28;20650;-70
2021/01/11 02:44:59;;;;;;;38.10;14.70;;;-4.00;95.50;;;;;;5048576;28;20216;-73
2021/01/11 02:47:49;;;;;;;36.37;15.80;;;-4.00;95.50;;;;;;5047237;28;20882;-71
2021/01/11 02:50:20;;;;;;;35.47;15.35;;;-4.00;95.50;;;;;;5050430;28;20836;-71
2021/01/11 02:53:06;;;;;;;39.33;16.67;;;-4.10;95.50;;;;;;5049070;28;20197;-72
2021/01/11 02:56:07;;;;;;;43.53;16.35;;;-4.10;95.60;;;;;;5049350;28;20207;-72
2021/01/11 02:58:53;;;;;;;41.28;15.90;;;-4.20;95.70;;;;;;5041786;28;20216;-73
2021/01/11 03:01:22;;;;;;;31.55;14.80;;;-4.20;95.70;;;;;;5049449;28;20188;-73
2021/01/11 03:03:50;;;;;;;38.63;16.30;;;-4.20;95.60;;;;;;5048898;28;20207;-73
2021/01/11 03:06:17;;;;;;;33.72;16.83;;;-4.20;95.50;;;;;;5047419;28;20185;-71
2021/01/11 03:08:42;;;;;;;37.28;17.13;;;-4.20;95.50;;;;;;5047592;28;20188;-73
2021/01/11 03:11:08;;;;;;;39.57;16.03;;;-4.20;95.60;;;;;;5049480;28;20182;-72
2021/01/11 03:13:34;;;;;;;38.50;15.70;;;-4.20;95.40;;;;;;5067556;28;20194;-72
2021/01/11 03:15:59;;;;;;;37.63;15.70;;;-4.20;95.10;;;;;;5068707;28;20180;-72
2021/01/11 03:18:25;;;;;;;41.50;15.93;;;-4.20;94.90;;;;;;5062174;28;20212;-73
2021/01/11 03:20:51;;;;;;;39.93;15.93;;;-4.20;94.70;;;;;;5061233;28;20191;-73
2021/01/11 03:23:17;;;;;;;37.50;17.13;;;-4.20;94.80;;;;;;5049287;28;20196;-72
2021/01/11 03:25:42;;;;;;;38.30;15.17;;;-4.20;94.90;;;;;;5059285;28;20442;-72
2021/01/11 03:28:08;;;;;;;42.10;14.70;;;-4.20;95.00;;;;;;5063434;28;20180;-73
2021/01/11 03:30:34;;;;;;;38.90;16.83;;;-4.20;95.10;;;;;;5060349;28;20187;-73
2021/01/11 03:33:00;;;;;;;39.40;14.37;;;-4.20;95.30;;;;;;5069804;28;20195;-73
2021/01/11 03:35:26;;;;;;;31.33;15.83;;;-4.20;95.50;;;;;;5072964;28;20438;-72
2021/01/11 03:37:52;;;;;;;43.17;17.23;;;-4.10;95.60;;;;;;5055254;28;20209;-72
2021/01/11 03:40:17;;;;;;;44.03;16.83;;;-4.20;95.60;;;;;;5053303;28;20188;-71
2021/01/11 03:42:43;;;;;;;39.70;13.87;;;-4.10;95.60;;;;;;5052588;28;20184;-71
2021/01/11 03:45:10;;;;;;;36.10;15.47;;;-4.20;95.60;;;;;;5061686;28;20527;-71
2021/01/11 03:47:36;;;;;;;41.15;14.70;;;-4.20;95.50;;;;;;5071135;28;20236;-72
2021/01/11 03:50:06;;;;;;;43.38;15.98;;;-4.20;95.50;;;;;;5073754;28;20298;-73
2021/01/11 03:52:35;;;;;;;36.22;15.07;;;-4.10;95.50;;;;;;5054770;28;20216;-71
2021/01/11 03:55:03;;;;;;;31.80;14.93;;;-4.20;95.30;;;;;;5053091;28;20223;-72
2021/01/11 03:57:31;;;;;;;37.75;15.55;;;-4.30;95.20;;;;;;5053858;28;21090;-73
2021/01/11 03:59:58;;;;;;;41.30;17.50;;;-4.20;95.20;;;;;;5064585;28;20183;-72
2021/01/11 04:02:24;;;;;;;31.85;13.40;;;-4.30;95.20;;;;;;5051872;28;20272;-71
2021/01/11 04:04:50;;;;;;;33.55;14.55;;;-4.20;95.30;;;;;;5050304;28;20209;-73
2021/01/11 04:07:16;;;;;;;31.70;14.60;;;-4.20;95.40;;;;;;5051085;28;20576;-72
2021/01/11 04:09:41;;;;;;;38.70;16.20;;;-4.20;95.40;;;;;;5052138;28;20181;-70
2021/01/11 04:12:07;;;;;;;38.77;14.83;;;-4.30;95.40;;;;;;5071379;28;20916;-71
2021/01/11 04:14:33;;;;;;;37.30;15.80;;;-4.30;95.50;;;;;;5071569;28;20206;-72
2021/01/11 04:16:59;;;;;;;39.63;17.17;;;-4.30;95.50;;;;;;5064883;28;20518;-72
2021/01/11 04:19:25;;;;;;;31.80;13.23;;;-4.40;95.70;;;;;;5052044;28;20263;-71
2021/01/11 04:21:51;;;;;;;35.90;14.30;;;-4.40;95.80;;;;;;5052228;28;20180;-73
2021/01/11 04:24:16;;;;;;;38.43;15.40;;;-4.30;95.90;;;;;;5051688;28;20439;-70
2021/01/11 04:26:45;;;;;;;32.03;15.90;;;-4.40;96.00;;;;;;5057900;28;20279;-71
2021/01/11 04:29:11;;;;;;;33.42;14.93;;;-4.40;96.00;;;;;;5071771;28;20685;-71
2021/01/11 04:31:37;;;;;;;39.47;16.23;;;-4.40;96.00;;;;;;5052194;28;20267;-71
2021/01/11 04:34:03;;;;;;;34.70;15.95;;;-4.40;95.90;;;;;;5051756;28;20256;-72
2021/01/11 04:36:32;;;;;;;39.33;14.67;;;-4.40;95.70;;;;;;5054244;28;20215;-73
2021/01/11 04:38:57;;;;;;;37.85;15.77;;;-4.40;95.60;;;;;;5063683;28;20219;-73
2021/01/11 04:41:24;;;;;;;41.07;16.27;;;-4.40;95.50;;;;;;5056513;28;20180;-71
2021/01/11 04:43:53;;;;;;;36.05;16.10;;;-4.40;95.50;;;;;;5053531;28;20184;-70
2021/01/11 04:46:19;;;;;;;31.98;14.70;;;-4.40;95.60;;;;;;5048222;28;20200;-71
2021/01/11 04:48:45;;;;;;;31.25;14.73;;;-4.40;95.70;;;;;;5050914;28;20241;-71
2021/01/11 04:51:11;;;;;;;42.40;18.57;;;-4.40;95.70;;;;;;5051606;28;20279;-70
2021/01/11 04:53:42;;;;;;;34.90;14.87;;;-4.40;95.60;;;;;;5049357;28;20239;-71
2021/01/11 04:56:11;;;;;;;32.38;15.02;;;-4.40;95.60;;;;;;5049462;28;20188;-71
2021/01/11 04:58:58;;;;;;;38.30;16.55;;;-4.50;95.70;;;;;;5051292;28;20568;-70
2021/01/11 05:01:28;;;;;;;34.00;15.50;;;-4.40;95.80;;;;;;5061625;28;20654;-71
2021/01/11 05:04:01;;;;;;;32.55;15.18;;;-4.40;95.90;;;;;;5070145;28;20790;-70
2021/01/11 05:06:28;;;;;;;39.80;17.08;;;-4.50;95.90;;;;;;5057255;28;20188;-71
2021/01/11 05:09:06;;;;;;;38.08;16.08;;;-4.50;95.90;;;;;;5050593;28;20197;-70
2021/01/11 05:11:32;;;;;;;30.98;15.05;;;-4.50;96.00;;;;;;5051229;28;20192;-71
2021/01/11 05:13:58;;;;;;;39.40;15.70;;;-4.60;96.00;;;;;;5050937;28;20269;-71
2021/01/11 05:16:24;;;;;;;38.00;16.27;;;-4.60;96.10;;;;;;5048982;28;20184;-71
2021/01/11 05:18:57;;;;;;;33.03;13.73;;;-4.60;96.10;;;;;;5049538;28;20247;-71
2021/01/11 05:21:41;;;;;;;32.45;14.93;;;-4.60;95.90;;;;;;5053919;28;20183;-70
2021/01/11 05:24:27;;;;;;;39.00;15.70;;;-4.60;95.80;;;;;;5057340;28;20208;-71
2021/01/11 05:26:53;;;;;;;33.90;15.10;;;-4.60;95.60;;;;;;5036993;28;20329;-71
2021/01/11 05:29:19;;;;;;;37.15;14.35;;;-4.60;95.40;;;;;;5050024;28;20775;-70
2021/01/11 05:31:52;;;;;;;32.57;14.63;;;-4.60;95.20;;;;;;5058989;28;20277;-71
2021/01/11 05:34:18;;;;;;;37.47;14.63;;;-4.70;95.10;;;;;;5054091;28;20228;-71
2021/01/11 05:36:45;;;;;;;36.70;14.43;;;-4.70;94.90;;;;;;5048842;28;20192;-70
2021/01/11 05:39:11;;;;;;;37.15;15.45;;;-4.70;94.40;;;;;;5049977;28;20204;-70
2021/01/11 05:41:41;;;;;;;29.97;14.07;;;-4.70;94.20;;;;;;5052167;28;20184;-69
2021/01/11 05:44:14;;;;;;;36.45;15.07;;;-4.80;94.20;;;;;;5050390;28;20203;-70
2021/01/11 05:46:41;;;;;;;35.00;14.70;;;-4.80;94.30;;;;;;5050327;28;20279;-70
2021/01/11 05:49:09;;;;;;;41.28;15.60;;;-4.80;94.40;;;;;;5050862;28;20196;-70
2021/01/11 05:51:36;;;;;;;36.65;15.63;;;-4.80;94.50;;;;;;5050428;28;20200;-70
2021/01/11 05:54:02;;;;;;;44.63;16.65;;;-4.80;94.60;;;;;;5049162;28;20216;-70
2021/01/11 05:56:55;;;;;;;36.30;15.60;;;-4.90;94.70;;;;;;5048890;28;20204;-69
2021/01/11 05:59:21;;;;;;;35.92;14.93;;;-4.90;94.80;;;;;;5050773;28;20413;-69
2021/01/11 06:01:47;;;;;;;37.05;14.43;;;-4.80;94.80;;;;;;5048742;28;20333;-70
2021/01/11 06:04:13;;;;;;;41.60;15.83;;;-4.80;94.90;;;;;;5048914;28;20747;-70
2021/01/11 06:06:40;;;;;;;41.60;17.07;;;-4.80;94.90;;;;;;5050239;28;20453;-69
2021/01/11 06:09:07;;;;;;;39.45;16.83;;;-4.80;94.90;;;;;;5057535;28;20184;-70
2021/01/11 06:11:36;;;;;;;35.58;15.32;;;-4.80;95.00;;;;;;5055021;28;20185;-70
2021/01/11 06:14:04;;;;;;;37.05;14.93;;;-4.80;94.90;;;;;;5050069;28;20204;-69
2021/01/11 06:16:31;;;;;;;36.88;14.80;;;-4.80;94.90;;;;;;5050308;28;20192;-69
2021/01/11 06:18:57;;;;;;;41.97;15.75;;;-4.80;94.80;;;;;;5060321;28;20748;-70
2021/01/11 06:21:23;;;;;;;37.73;15.73;;;-4.80;94.80;;;;;;5049636;28;20188;-69
2021/01/11 06:24:16;;;;;;;42.88;16.75;;;-4.80;94.90;;;;;;5049625;28;20510;-70
2021/01/11 06:26:44;;;;;;;37.97;16.10;;;-4.80;94.90;;;;;;5050021;28;20640;-71
2021/01/11 06:29:28;;;;;;;30.58;14.85;;;-4.80;94.90;;;;;;5062751;28;20195;-70
2021/01/11 06:31:56;;;;;;;32.88;15.35;;;-4.70;95.00;;;;;;5049817;28;20180;-69
2021/01/11 06:34:37;;;;;;;40.60;15.43;;;-4.70;94.90;;;;;;5065326;28;20238;-70
2021/01/11 06:37:17;;;;;;;37.25;16.13;;;-4.80;94.60;;;;;;5057120;28;20187;-71
2021/01/11 06:39:44;;;;;;;48.88;16.50;;;-4.80;94.60;;;;;;5041145;28;20180;-70
2021/01/11 06:42:11;;;;;;;33.58;15.82;;;-4.90;94.60;;;;;;5064616;28;20187;-69
2021/01/11 06:44:39;;;;;;;36.38;15.30;;;-4.90;94.70;;;;;;5062236;28;20227;-71
2021/01/11 06:47:06;;;;;;;36.85;15.48;;;-4.80;94.90;;;;;;5047376;28;20183;-69
2021/01/11 06:49:34;;;;;;;45.75;17.23;;;-4.90;95.00;;;;;;5048765;28;20188;-70
2021/01/11 06:52:08;;;;;;;37.63;15.35;;;-4.80;95.10;;;;;;5048789;28;20218;-70
2021/01/11 06:54:36;;;;;;;35.22;15.15;;;-4.80;95.20;;;;;;5048412;28;20204;-71
2021/01/11 06:57:09;;;;;;;38.28;16.33;;;-4.80;95.20;;;;;;5047208;28;20196;-70
2021/01/11 06:59:37;;;;;;;47.10;18.73;;;-4.80;95.20;;;;;;5050046;28;20188;-70
2021/01/11 07:02:17;;;;;;;38.88;16.00;;;-4.80;95.10;;;;;;5051447;28;20218;-70
2021/01/11 07:04:44;;;;;;;38.75;16.02;;;-4.90;95.10;;;;;;5069872;28;20203;-70
2021/01/11 07:07:20;;;;;;;38.80;17.42;;;-4.90;95.10;;;;;;5068604;28;20271;-69
2021/01/11 07:09:54;;;;;;;41.78;18.35;;;-4.90;95.20;;;;;;5055713;28;20660;-70
2021/01/11 07:12:21;;;;;;;44.58;17.35;;;-4.80;95.30;;;;;;5048061;28;20653;-71
2021/01/11 07:15:15;;;;;;;48.85;18.95;;;-4.80;95.40;;;;;;5062688;28;20199;-70
2021/01/11 07:17:43;;;;;;;42.28;17.38;;;-4.70;95.30;;;;;;5066498;28;21005;-70
2021/01/11 07:20:13;;;;;;;35.35;15.68;;;-4.70;95.20;;;;;;5048714;28;20238;-71
2021/01/11 07:22:41;;;;;;;40.70;16.40;;;-4.80;95.20;;;;;;5049831;28;20188;-71
2021/01/11 07:25:23;;;;;;;37.95;15.57;;;-4.70;95.20;;;;;;5061385;28;20709;-69
2021/01/11 07:27:59;;;;;;;35.60;15.20;;;-4.70;95.10;;;;;;5051729;28;20279;-70
2021/01/11 07:30:25;;;;;;;46.05;17.77;;;-4.60;94.90;;;;;;5070513;28;20176;-70
2021/01/11 07:32:51;;;;;;;43.45;17.02;;;-4.70;94.60;;;;;;5051438;28;20678;-69
2021/01/11 07:35:17;;;;;;;38.13;16.50;;;-4.70;94.40;;;;;;5048179;28;20219;-69
2021/01/11 07:37:42;;;;;;;49.83;18.97;;;-4.70;94.60;;;;;;5061351;28;21032;-70
2021/01/11 07:40:09;;;;;;;33.73;15.77;;;-4.60;94.70;;;;;;5050132;28;20193;-69
2021/01/11 07:42:36;;;;;;;38.17;15.25;;;-4.60;94.70;;;;;;5049144;28;20415;-69
2021/01/11 07:45:11;;;;;;;36.25;17.15;;;-4.60;94.80;;;;;;5056243;28;20207;-70
2021/01/11 07:47:41;;;;;;;38.97;17.25;;;-4.50;94.80;;;;;;5050563;28;20232;-71
2021/01/11 07:50:08;;;;;;;42.40;15.60;;;-4.50;94.70;;;;;;5048376;28;20188;-69
2021/01/11 07:52:34;;;;;;;48.60;17.52;;;-4.50;94.50;;;;;;5049538;28;20551;-69
2021/01/11 07:55:02;;;;;;;35.10;15.97;;;-4.50;94.30;;;;;;5048774;28;20295;-68
2021/01/11 07:57:29;;;;;;;37.80;16.50;;;-4.50;94.10;;;;;;5049911;28;20458;-68
2021/01/11 08:00:08;;;;;;;40.95;16.55;;;-4.50;94.10;;;;;;5049649;28;20185;-69
2021/01/11 08:02:34;;;;;;;41.40;17.48;;;-4.40;94.10;;;;;;5050683;28;20667;-68
2021/01/11 08:05:00;;;;;;;47.53;17.88;;;-4.30;94.10;;;;;;5061765;28;20235;-70
2021/01/11 08:07:29;;;;;;;39.80;15.63;;;-4.20;94.10;;;;;;5048408;28;20216;-69
2021/01/11 08:09:56;;;;;;;40.50;17.38;;;-4.10;93.80;;;;;;5049282;28;20720;-67
2021/01/11 08:12:23;;;;;;;36.78;15.18;;;-4.10;92.90;;;;;;5050901;28;20177;-69
2021/01/11 08:14:51;;;;;;;40.67;16.23;;;-4.20;92.70;;;;;;5063872;28;20200;-68
2021/01/11 08:17:24;;;;;;;43.78;17.70;;;-4.10;92.50;;;;;;5050066;28;20177;-69
2021/01/11 08:19:53;;;;;;;35.42;14.18;;;-4.20;92.30;;;;;;5053653;28;20176;-68
2021/01/11 08:22:20;;;;;;;32.42;15.07;;;-4.10;92.40;;;;;;5055181;28;20267;-71
2021/01/11 08:24:50;;;;;;;37.72;15.95;;;-4.00;92.30;;;;;;5055009;28;20208;-69
2021/01/11 08:27:26;;;;;;;47.92;16.38;;;-4.00;92.00;;;;;;5062502;28;20180;-69
2021/01/11 08:29:53;;;;;;;38.40;15.73;;;-4.00;91.90;;;;;;5060015;28;20203;-68
2021/01/11 08:32:19;;;;;;;39.22;16.15;;;-3.90;91.80;;;;;;5050797;28;20196;-69
2021/01/11 08:34:46;;;;;;;39.72;17.17;;;-3.90;91.50;;;;;;5051281;28;20227;-70
2021/01/11 08:37:31;;;;;;;39.25;15.70;;;-3.90;91.40;;;;;;5064515;28;20214;-69
2021/01/11 08:40:05;;;;;;;44.03;18.50;;;-3.90;91.40;;;;;;5057025;28;20180;-70
2021/01/11 08:42:32;;;;;;;43.78;18.48;;;-3.90;91.40;;;;;;5065238;28;20179;-70
2021/01/11 08:45:34;;;;;;;40.65;15.50;;;-3.80;91.60;;;;;;5060510;28;20567;-71
2021/01/11 08:48:08;;;;;;;44.88;17.50;;;-3.80;91.40;;;;;;5071624;28;20243;-69
2021/01/11 08:50:50;;;;;;;35.95;16.58;;;-3.80;91.00;;;;;;5056458;28;20536;-71
2021/01/11 08:53:30;;;;;;;48.22;18.05;;;-3.80;91.00;;;;;;5051783;28;20267;-70
2021/01/11 08:56:09;;;;;;;34.80;17.33;;;-3.80;90.80;;;;;;5050364;28;20209;-70
2021/01/11 08:58:36;;;;;;;46.65;16.52;;;-3.80;90.80;;;;;;5056247;28;20208;-70
2021/01/11 09:01:16;;;;;;;43.50;16.98;;;-3.70;91.10;;;;;;5052050;28;20200;-69
2021/01/11 09:03:55;;;;;;;36.45;16.33;;;-3.70;90.80;;;;;;5050348;28;20193;-70
2021/01/11 09:06:39;;;;;;;43.10;16.77;;;-3.70;90.50;;;;;;5062192;28;20218;-70
2021/01/11 09:09:08;;;;;;;36.47;16.58;;;-3.70;90.20;;;;;;5039622;28;20184;-69
2021/01/11 09:11:34;;;;;;;44.40;15.65;;;-3.70;90.20;;;;;;5051104;28;20192;-69
2021/01/11 09:14:07;;;;;;;35.88;15.88;;;-3.60;90.20;;;;;;5049635;28;20752;-69
2021/01/11 09:16:34;;;;;;;43.75;17.20;;;-3.60;90.20;;;;;;5050390;28;20633;-72
2021/01/11 09:19:13;;;;;;;42.03;16.02;;;-3.50;90.20;;;;;;5051253;28;20227;-72
2021/01/11 09:21:41;;;;;;;40.38;16.33;;;-3.40;90.20;;;;;;5051462;28;20230;-70
2021/01/11 09:24:13;;;;;;;36.30;16.48;;;-3.40;90.20;;;;;;5050664;28;20212;-70
2021/01/11 09:26:40;;;;;;;43.90;15.90;;;-3.20;89.70;;;;;;5069882;28;20183;-70
2021/01/11 09:29:07;;;;;;;38.88;16.50;;;-3.10;89.20;;;;;;5070898;28;20188;-70
2021/01/11 09:31:33;;;;;;;37.88;15.70;;;-3.10;88.40;;;;;;5062444;28;20189;-70
2021/01/11 09:33:59;;;;;;;32.00;14.93;;;-3.00;88.10;;;;;;5062524;28;20255;-70
2021/01/11 09:36:31;;;;;;;39.80;15.57;;;-3.00;87.10;;;;;;5052300;28;20192;-68
2021/01/11 09:38:57;;;;;;;36.30;15.88;;;-3.10;86.80;;;;;;5050254;28;20220;-71
2021/01/11 09:41:23;;;;;;;40.08;15.48;;;-3.10;86.50;;;;;;5050763;28;20211;-71
2021/01/11 09:43:49;;;;;;;32.13;14.07;;;-3.00;86.80;;;;;;5050399;28;20266;-70
2021/01/11 09:46:15;;;;;;;39.60;14.33;;;-3.00;87.00;;;;;;5049180;28;20189;-70
2021/01/11 09:48:40;;;;;;;43.13;16.27;;;-3.00;87.10;;;;;;5049198;28;20221;-70
2021/01/11 09:51:06;;;;;;;38.93;16.97;;;-2.90;87.10;;;;;;5068920;28;20491;-69
2021/01/11 09:53:32;;;;;;;34.53;15.57;;;-2.80;86.80;;;;;;5070169;28;20220;-70
2021/01/11 09:55:57;;;;;;;31.80;14.80;;;-2.70;86.90;;;;;;5056006;28;20184;-71
2021/01/11 09:58:23;;;;;;;35.93;13.63;;;-2.80;86.60;;;;;;5062081;28;20203;-71
2021/01/11 10:00:49;;;;;;;37.37;14.43;;;-2.60;86.30;;;;;;5050110;28;20180;-70
2021/01/11 10:03:14;;;;;;;41.50;15.07;;;-2.60;86.20;;;;;;5062935;28;20194;-70
2021/01/11 10:05:40;;;;;;;33.83;14.90;;;-2.50;85.60;;;;;;5062455;28;20201;-71
2021/01/11 10:08:06;;;;;;;29.30;13.10;;;-2.40;85.30;;;;;;5049768;28;20196;-70
2021/01/11 10:10:32;;;;;;;35.00;15.27;;;-2.40;85.00;;;;;;5056308;28;20187;-69
2021/01/11 10:12:57;;;;;;;37.87;15.10;;;-2.30;84.60;;;;;;5070820;28;20192;-70
2021/01/11 10:15:23;;;;;;;34.87;13.83;;;-2.20;83.80;;;;;;5062128;28;20210;-71
2021/01/11 10:17:49;;;;;;;34.70;15.10;;;-2.20;83.80;;;;;;5061921;28;20211;-71
2021/01/11 10:20:14;;;;;;;30.43;14.07;;;-2.10;83.80;;;;;;5063011;28;20269;-70
2021/01/11 10:22:41;;;;;;;32.30;13.73;;;-2.00;83.70;;;;;;5048930;28;20654;-70
2021/01/11 10:25:08;;;;;;;29.27;13.95;;;-1.80;82.40;;;;;;5049333;28;20333;-70
2021/01/11 10:27:34;;;;;;;34.30;12.95;;;-1.80;81.90;;;;;;5050220;28;20267;-71
2021/01/11 10:30:00;;;;;;;38.25;13.60;;;-1.80;81.70;;;;;;5051257;28;20184;-70
2021/01/11 10:32:26;;;;;;;36.90;13.93;;;-1.80;81.50;;;;;;5050314;28;20226;-70
2021/01/11 10:34:51;;;;;;;35.23;15.07;;;-1.80;81.40;;;;;;5050365;28;20212;-69
2021/01/11 10:37:17;;;;;;;32.50;15.40;;;-1.60;81.80;;;;;;5062483;28;20570;-71
2021/01/11 10:39:43;;;;;;;33.93;14.70;;;-1.30;80.90;;;;;;5056941;28;20809;-69
2021/01/11 10:42:09;;;;;;;38.23;13.40;;;-0.90;80.20;;;;;;5061046;28;20206;-70
2021/01/11 10:44:35;;;;;;;29.67;14.33;;;-0.60;78.00;;;;;;5048300;28;20517;-73
2021/01/11 10:47:01;;;;;;;26.73;12.50;;;-0.30;76.20;;;;;;5048622;28;20331;-71
2021/01/11 10:49:30;;;;;;;31.55;11.95;;;0.00;75.70;;;;;;5049035;28;20188;-71
2021/01/11 10:51:56;;;;;;;28.75;11.82;;;0.30;74.20;;;;;;5062158;28;20284;-70
2021/01/11 10:54:23;;;;;;;28.40;12.27;;;0.40;72.00;;;;;;5067389;28;20694;-71
2021/01/11 10:56:51;;;;;;;31.15;12.93;;;0.50;71.70;;;;;;5065385;28;20667;-71
2021/01/11 10:59:17;;;;;;;29.90;12.15;;;0.50;70.50;;;;;;5063294;28;20206;-70
2021/01/11 11:01:42;;;;;;;23.23;10.63;;;0.40;70.50;;;;;;5069383;28;20191;-72
2021/01/11 11:04:08;;;;;;;24.53;11.13;;;0.30;70.80;;;;;;5061243;28;20204;-71
2021/01/11 11:06:34;;;;;;;32.67;12.83;;;0.20;70.40;;;;;;5048398;28;20187;-71
2021/01/11 11:09:00;;;;;;;29.90;12.90;;;0.20;70.80;;;;;;5069075;28;20420;-72
2021/01/11 11:11:25;;;;;;;30.33;12.60;;;0.10;71.00;;;;;;5054985;28;20189;-71
2021/01/11 11:13:51;;;;;;;22.50;11.77;;;0.10;71.60;;;;;;5049198;28;20271;-72
2021/01/11 11:16:17;;;;;;;25.23;12.63;;;0.00;71.40;;;;;;5062558;28;20214;-71
2021/01/11 11:18:43;;;;;;;26.53;11.77;;;-0.20;72.00;;;;;;5048524;28;20230;-71
2021/01/11 11:21:11;;;;;;;29.00;12.17;;;-0.40;72.70;;;;;;5048140;28;20689;-72
2021/01/11 11:23:37;;;;;;;26.10;13.18;;;-0.50;73.60;;;;;;5049770;28;20423;-73
2021/01/11 11:26:04;;;;;;;26.30;11.43;;;-0.50;74.30;;;;;;5063619;28;20179;-71
2021/01/11 11:28:31;;;;;;;24.70;11.02;;;-0.60;73.90;;;;;;5068337;28;20195;-72
2021/01/11 11:30:57;;;;;;;20.48;9.90;;;-0.60;73.70;;;;;;5064999;28;20199;-70
2021/01/11 11:33:23;;;;;;;25.77;11.57;;;-0.80;73.20;;;;;;5048327;28;20207;-70
2021/01/11 11:35:49;;;;;;;26.95;11.93;;;-0.90;73.50;;;;;;5060706;28;20304;-71
2021/01/11 11:38:15;;;;;;;28.27;11.68;;;-0.90;74.00;;;;;;5065750;28;20226;-71
2021/01/11 11:40:41;;;;;;;25.60;11.90;;;-0.90;74.60;;;;;;5047295;28;20271;-70
2021/01/11 11:43:08;;;;;;;25.75;12.32;;;-0.90;75.40;;;;;;5062258;28;20299;-70
2021/01/11 11:45:34;;;;;;;30.63;11.82;;;-0.80;74.90;;;;;;5059546;28;20204;-71
2021/01/11 11:47:59;;;;;;;27.75;11.57;;;-0.80;74.50;;;;;;5048752;28;20192;-72
2021/01/11 11:50:26;;;;;;;27.30;12.50;;;-0.70;74.20;;;;;;5049455;28;20176;-70
2021/01/11 11:52:52;;;;;;;22.90;10.32;;;-0.70;74.00;;;;;;5062628;28;20188;-71
2021/01/11 11:55:18;;;;;;;22.73;10.60;;;-0.70;73.30;;;;;;5050999;28;20211;-71
2021/01/11 11:57:44;;;;;;;28.80;11.27;;;-0.70;72.60;;;;;;5058671;28;20815;-70
2021/01/11 12:00:15;;;;;;;24.42;11.05;;;-0.70;72.90;;;;;;5052951;28;20181;-71
2021/01/11 12:02:42;;;;;;;26.88;11.05;;;-0.60;72.90;;;;;;5051401;28;20258;-71
2021/01/11 12:05:12;;;;;;;26.15;11.98;;;-0.60;72.70;;;;;;5051704;28;20200;-71
2021/01/11 12:07:38;;;;;;;31.67;11.43;;;-0.60;72.90;;;;;;5051841;28;20573;-71
2021/01/11 12:10:06;;;;;;;23.98;11.68;;;-0.60;72.90;;;;;;5052259;28;20210;-71
2021/01/11 12:12:32;;;;;;;25.30;10.85;;;-0.60;73.30;;;;;;5052184;28;20200;-71
2021/01/11 12:15:02;;;;;;;21.53;10.90;;;-0.50;73.70;;;;;;5054289;28;20231;-71
2021/01/11 12:17:29;;;;;;;27.42;12.00;;;-0.40;73.30;;;;;;5061354;28;20184;-71
2021/01/11 12:19:54;;;;;;;22.55;12.20;;;-0.40;72.90;;;;;;5052171;28;20192;-72
2021/01/11 12:22:20;;;;;;;36.73;12.23;;;-0.30;72.90;;;;;;5053111;28;20184;-71
2021/01/11 12:24:46;;;;;;;26.30;10.90;;;-0.30;73.00;;;;;;5065697;28;20201;-70
2021/01/11 12:27:12;;;;;;;24.33;10.63;;;-0.20;72.70;;;;;;5062638;28;20441;-71
2021/01/11 12:29:38;;;;;;;22.93;10.40;;;-0.20;72.00;;;;;;5054639;28;20430;-71
2021/01/11 12:32:05;;;;;;;24.30;10.90;;;-0.20;71.40;;;;;;5050573;28;20196;-72
2021/01/11 12:34:39;;;;;;;28.58;11.85;;;-0.20;71.70;;;;;;5068687;28;20266;-71
2021/01/11 12:37:05;;;;;;;25.30;11.00;;;-0.20;71.70;;;;;;5069743;28;20195;-71